Historyczne dane pomiarowe

Dodano dane terminowe – wersja testowa.

Dane z okresu 1951-2019

Wersja bazy: 1.34 [2019-03-16, lista zmian], aktualizacja planowana na 2019-04-15

Dane meteo z obszaru Polski uzyskane na podstawie danych udostępnionych przez Instytut Meteorologii i Gospodarki Wodnej – Państwowy Instytut Badawczy.

 

Wybierz Datę:    

       

TemperaturaWilgotnośćWiatrCiśnienieOpadyŚniegCzas trwania zjawisk
 Stacja t tx tn tng RH VA  wxwx mslp ppp RRR   cm mm wxwxwxwxwxwxwx
1994-08-14 13.3 16.8 9.8 8.1 55.5- 3.3 4.3---- 0.0------------
1994-08-13 15.9 19.8 13.2 12.3 74.0- 6.0 3.7---- 0.0------------
1994-08-12 15.8 18.5 13.7 12.0 87.5- 7.3 1.3---- 2.3------------
1994-08-11 17.9 23.8 15.1 14.3 85.5- 6.3 3.0---- 1.9------------
1994-08-10 20.3 27.7 12.6 11.4 71.0- 4.3 1.0---- 4.2------------
1994-08-09 18.9 22.6 16.6 16.7 83.8- 5.3 2.0---- 9.7------------
1994-08-08 18.5 23.0 16.2 15.3 84.3- 8.0 1.0---- 32.5------------
1994-08-07 20.9 25.8 15.6 14.4 73.8- 7.0 1.3---- 2.4------------
1994-08-06 22.6 28.2 16.1 13.1 54.8- 4.0 1.7---- 0.0------------
1994-08-05 22.7 31.8 11.6 10.0 49.3- 0.3 0.7---- 0.0------------
1994-08-04 21.0 27.4 11.4 9.8 53.8- 0.7 1.3---- 0.0------------
1994-08-03 22.2 26.9 17.9 16.2 67.8- 5.7 2.0---- 0.0------------
1994-08-02 23.9 30.3 16.9 14.9 58.5- 3.3 2.7---- 0.0------------
1994-08-01 29.6 34.4 21.5 16.3 40.0- 0.7 1.7---- 0.0------------
1994-07-31 26.8 33.9 16.9 13.8 46.8- 2.3 0.3---- 0.0------------
1994-07-30 26.0 33.9 16.2 13.3 46.5- 1.7 1.3---- 0.0------------
1994-07-29 24.8 33.7 15.5 13.5 51.8- 3.7 0.7---- 0.0------------
1994-07-28 24.5 32.5 14.1 12.2 52.8- 0.3 0.7---- 0.0------------
1994-07-27 24.1 31.3 15.8 13.8 56.5- 5.0 1.0---- 0.0------------
1994-07-26 23.9 31.8 14.9 12.4 56.8- 3.0 0.7---- 0.0------------
1994-07-25 22.1 30.5 12.8 10.4 59.0- 4.3 0.7---- 0.0------------
1994-07-24 22.1 28.9 11.0 8.8 52.0- 0.7 1.7---- 0.0------------
1994-07-23 21.4 28.3 9.3 7.5 51.3- 2.0 1.3---- 0.0------------
1994-07-22 20.4 28.3 9.5 7.6 54.5- 1.3 1.7---- 0.0------------
1994-07-21 18.9 26.1 7.9 6.4 59.3- 0.0 2.7---- 0.0------------
1994-07-20 17.4 22.9 7.5 6.4 62.5- 1.3 2.0---- 0.0------------
1994-07-19 15.9 20.2 14.2 14.0 85.8- 7.0 0.7---- 0.0------------
1994-07-18 16.9 21.4 11.9 11.1 92.0- 7.3 1.3---- 0.0------------
1994-07-17 18.2 25.5 14.4 13.3 89.5- 4.7 0.3---- 11.7------------
1994-07-16 21.8 25.5 17.3 16.5 66.3- 4.7 2.0---- 0.0------------
1994-07-15 22.8 28.7 14.4 12.4 63.0- 3.3 2.3---- 0.0------------
1994-07-14 22.1 29.0 12.1 10.4 61.8- 3.0 1.0---- 0.0------------
1994-07-13 20.9 27.3 11.8 10.4 65.3- 3.0 1.7---- 0.0------------
1994-07-12 19.2 24.8 12.4 10.8 77.8- 4.3 4.3---- 0.0------------
1994-07-11 20.3 25.1 12.2 10.2 64.5- 1.3 2.7---- 0.0------------
1994-07-10 16.1 21.0 12.4 12.7 85.5- 5.7 3.3---- 0.2------------
1994-07-09 14.9 16.7 13.3 11.6 82.8- 7.0 3.3---- 13.8------------
1994-07-08 13.5 16.8 10.4 13.3 76.3- 5.7 4.7---- 0.5------------
1994-07-07 15.7 22.8 10.2 9.6 88.0- 6.7 1.3---- 19.0------------
1994-07-06 18.4 24.0 10.4 9.3 76.0- 5.0 1.3---- 0.0------------
1994-07-05 20.0 25.3 14.9 13.2 73.5- 6.3 2.0---- 0.0------------
1994-07-04 22.2 28.8 10.9 9.2 57.3- 1.7 1.3---- 0.0------------
1994-07-03 19.7 26.7 8.7 7.3 64.3- 0.7 2.0---- 0.0------------
1994-07-02 17.7 23.3 8.1 6.9 67.5- 0.3 1.3---- 0.0------------
1994-07-01 16.1 21.4 8.3 7.3 72.8- 2.3 2.0---- 0.0------------
1994-06-30 18.5 27.3 15.6 16.4 85.3- 6.3 2.3---- 11.9------------
1994-06-29 25.5 32.4 16.8 15.5 66.8- 3.7 0.7---- 0.2------------
1994-06-28 23.7 29.9 15.5 14.7 74.3- 4.7 2.0---- 0.0------------
1994-06-27 23.9 29.5 15.5 13.8 69.5- 3.0 1.3---- 0.0------------
1994-06-26 23.3 29.3 15.4 10.7 52.3- 2.3 2.0---- 0.0------------
1994-06-25 17.4 25.9 3.8 2.3 53.8- 0.0 1.7---- 0.0------------
1994-06-24 14.9 19.7 5.8 3.3 47.3- 0.7 2.7---- 0.0------------
1994-06-23 15.7 19.7 12.5 10.9 52.8- 1.7 5.3---- 0.0------------
1994-06-22 18.6 23.5 11.6 10.2 70.5- 4.7 3.0---- 0.0------------
1994-06-21 16.0 21.5 6.1 5.0 70.8- 2.3 1.3---- 0.0------------
1994-06-20 15.5 21.1 13.5 10.7 74.0- 6.3 3.0---- 0.0------------
1994-06-19 18.0 24.7 12.1 10.8 62.8- 5.7 3.7---- 0.0------------
1994-06-18 12.6 17.9 3.3 1.4 71.5- 7.0 2.3---- 3.4------------
1994-06-17 9.5 13.6 7.0 6.0 70.0- 4.3 3.3---- 0.0------------
1994-06-16 10.1 13.5 5.1 2.9 78.3- 8.0 3.3---- 4.2------------
319.7 ms

 

Źródłem pochodzenia danych jest Instytut Meteorologii i Gospodarki Wodnej – Państwowy Instytut Badawczy. Dane Instytutu Meteorologii i Gospodarki Wodnej – Państwowego Instytutu Badawczego zostały przetworzone.

Dane źródłowe można odnaleźć na stronie https://dane.imgw.pl